Time;durP1;ratioP1;P1;durP2;ratioP2;P2;SDS_P1;SDS_P2;PMS_P1;PMS_P2;Temp;Humidity;BMP_temperature;BMP_pressure;BME280_temperature;BME280_humidity;BME280_pressure;Samples;Min_cycle;Max_cycle;Signal;HPM_P1;HPM_P2
2021/12/30 00:00:07;;;;;;;34.90;17.67;;;;;;;-13.58;87.60;100527.59;6226090;22;20019;-76
2021/12/30 00:02:40;;;;;;;14.57;10.18;;;;;;;-13.57;88.03;100519.28;6249613;22;20348;-77
2021/12/30 00:05:06;;;;;;;35.10;18.15;;;;;;;-13.58;88.38;100512.56;6171629;22;20024;-75
2021/12/30 00:07:33;;;;;;;25.23;13.52;;;;;;;-13.51;87.63;100509.56;6246850;22;20016;-76
2021/12/30 00:09:59;;;;;;;12.52;8.60;;;;;;;-13.47;88.02;100511.44;6246134;22;20019;-75
2021/12/30 00:12:25;;;;;;;30.17;16.25;;;;;;;-13.45;87.54;100509.88;6197025;22;20023;-76
2021/12/30 00:14:51;;;;;;;18.52;11.10;;;;;;;-13.50;88.62;100496.22;6246634;22;20039;-78
2021/12/30 00:17:18;;;;;;;40.40;15.07;;;;;;;-13.44;88.78;100504.06;6196574;22;20024;-76
2021/12/30 00:19:44;;;;;;;33.38;16.08;;;;;;;-13.38;87.59;100509.41;6221062;22;20062;-76
2021/12/30 00:22:10;;;;;;;33.28;15.02;;;;;;;-13.41;87.80;100506.72;6220995;22;20115;-77
2021/12/30 00:24:36;;;;;;;22.52;11.90;;;;;;;-13.41;88.33;100502.56;6220946;22;20026;-76
2021/12/30 00:27:02;;;;;;;32.47;14.95;;;;;;;-13.37;88.67;100499.44;6196049;22;20019;-77
2021/12/30 00:29:28;;;;;;;18.23;9.68;;;;;;;-13.32;87.91;100493.00;6220949;22;20099;-76
2021/12/30 00:31:54;;;;;;;21.23;10.13;;;;;;;-13.25;88.03;100506.72;6220594;22;20525;-77
2021/12/30 00:34:20;;;;;;;13.35;9.20;;;;;;;-13.24;88.71;100500.91;6220752;22;20015;-77
2021/12/30 00:36:46;;;;;;;27.13;13.57;;;;;;;-13.20;88.02;100499.41;6246131;22;20482;-75
2021/12/30 00:39:12;;;;;;;33.78;18.67;;;;;;;-13.24;87.86;100493.38;6246074;22;20061;-77
2021/12/30 00:41:38;;;;;;;32.92;16.67;;;;;;;-13.25;88.38;100494.16;6221816;22;20020;-77
2021/12/30 00:44:04;;;;;;;19.90;11.65;;;;;;;-13.19;88.31;100494.47;6222413;22;20025;-76
2021/12/30 00:46:30;;;;;;;13.35;10.40;;;;;;;-13.22;88.41;100480.91;6171040;22;20055;-78
2021/12/30 00:48:56;;;;;;;22.33;12.60;;;;;;;-13.13;88.42;100499.78;6246035;22;20015;-77
2021/12/30 00:51:22;;;;;;;8.73;7.88;;;;;;;-13.07;88.61;100500.06;6272952;22;20019;-77
2021/12/30 00:53:48;;;;;;;5.07;4.68;;;;;;;-13.01;88.56;100494.44;6272692;22;20019;-76
2021/12/30 00:56:14;;;;;;;8.27;6.30;;;;;;;-13.03;88.79;100496.91;6275581;22;20093;-76
2021/12/30 00:58:43;;;;;;;10.07;8.75;;;;;;;-12.99;89.67;100491.25;6175819;22;20050;-77
2021/12/30 01:01:09;;;;;;;7.97;6.65;;;;;;;-12.94;89.38;100496.47;6196952;22;20039;-76
2021/12/30 01:03:35;;;;;;;13.27;8.75;;;;;;;-12.95;89.10;100495.59;6196337;22;20051;-76
2021/12/30 01:06:02;;;;;;;29.35;15.27;;;;;;;-12.95;89.14;100500.63;6221184;22;20023;-77
2021/12/30 01:08:28;;;;;;;19.10;11.05;;;;;;;-12.97;89.08;100489.66;6222368;22;20012;-77
2021/12/30 01:10:54;;;;;;;8.70;6.43;;;;;;;-12.82;89.79;100507.09;6246792;22;20477;-77
2021/12/30 01:13:25;;;;;;;21.17;11.60;;;;;;;-12.85;89.02;100510.34;6273214;22;20525;-77
2021/12/30 01:16:03;;;;;;;36.13;16.58;;;;;;;-12.84;87.82;100509.56;6273282;22;20102;-77
2021/12/30 01:18:43;;;;;;;31.02;15.65;;;;;;;-12.89;89.04;100505.94;6272793;22;20475;-76
2021/12/30 01:21:11;;;;;;;33.88;16.88;;;;;;;-12.83;88.67;100505.41;6174944;22;20031;-75
2021/12/30 01:23:41;;;;;;;20.17;12.25;;;;;;;-12.87;88.77;100494.34;6220222;22;20019;-76
2021/12/30 01:26:07;;;;;;;29.95;14.38;;;;;;;-12.93;88.62;100478.97;6219807;22;20110;-77
2021/12/30 01:28:33;;;;;;;28.42;14.73;;;;;;;-12.98;87.74;100470.34;6195401;22;20015;-76
2021/12/30 01:31:00;;;;;;;35.25;15.38;;;;;;;-12.97;88.28;100487.16;6195515;22;20050;-77
2021/12/30 06:40:50;;;;;;;14.48;9.68;;;;;;;-10.57;90.39;100428.78;6241960;23;20039;-76
2021/12/30 06:43:16;;;;;;;8.95;5.95;;;;;;;-10.57;90.33;100428.78;6215609;23;20043;-76
2021/12/30 06:45:44;;;;;;;4.13;3.83;;;;;;;-10.55;90.09;100431.41;6215482;23;20024;-78
2021/12/30 06:48:14;;;;;;;13.20;8.55;;;;;;;-10.53;89.57;100428.94;6242739;23;20047;-80
2021/12/30 06:50:40;;;;;;;6.15;5.75;;;;;;;-10.59;90.01;100422.84;6239862;23;20039;-76
2021/12/30 06:53:09;;;;;;;25.58;16.50;;;;;;;-10.46;89.61;100433.38;6191668;23;20016;-75
2021/12/30 06:55:35;;;;;;;27.98;13.85;;;;;;;-10.38;89.71;100434.56;6190607;23;20075;-74
2021/12/30 06:58:01;;;;;;;22.02;13.32;;;;;;;-10.41;89.54;100421.84;6215734;23;20020;-74
2021/12/30 07:00:27;;;;;;;6.32;5.45;;;;;;;-10.42;90.13;100415.06;6215754;23;20379;-74
2021/12/30 07:02:53;;;;;;;12.75;6.40;;;;;;;-10.41;89.93;100417.66;6215546;23;20020;-74
2021/12/30 07:05:19;;;;;;;9.18;7.18;;;;;;;-10.41;90.22;100419.31;6215504;23;20031;-75
2021/12/30 07:07:45;;;;;;;14.25;9.52;;;;;;;-10.27;90.43;100429.09;6242562;23;20016;-74
2021/12/30 07:10:11;;;;;;;12.55;9.73;;;;;;;-10.26;90.09;100419.88;6243367;23;20487;-76
2021/12/30 07:12:38;;;;;;;8.52;4.38;;;;;;;-10.25;89.92;100419.94;6242288;23;20401;-77
2021/12/30 07:15:07;;;;;;;11.98;8.50;;;;;;;-10.31;90.38;100422.25;6215702;23;20447;-76
2021/12/30 07:17:35;;;;;;;20.33;11.38;;;;;;;-10.18;90.51;100413.44;6214793;23;20491;-76
2021/12/30 07:20:06;;;;;;;20.85;11.70;;;;;;;-10.14;90.58;100406.03;6242585;23;20364;-78
2021/12/30 07:22:34;;;;;;;22.50;11.55;;;;;;;-10.09;90.26;100408.69;6217398;23;20416;-79
2021/12/30 07:25:00;;;;;;;23.50;11.60;;;;;;;-10.03;90.02;100419.00;6244351;23;20038;-77
2021/12/30 07:27:26;;;;;;;18.23;10.00;;;;;;;-10.01;89.84;100422.44;6243389;23;20337;-77
2021/12/30 07:29:56;;;;;;;24.08;11.48;;;;;;;-9.93;89.53;100420.19;6242915;23;20070;-74
2021/12/30 07:32:28;;;;;;;24.98;14.43;;;;;;;-9.86;89.46;100427.19;6216822;23;20480;-75
2021/12/30 07:34:54;;;;;;;11.75;6.80;;;;;;;-9.87;89.82;100421.25;6239120;23;20507;-75
2021/12/30 07:37:20;;;;;;;19.33;10.00;;;;;;;-9.94;89.93;100415.94;6240209;23;20027;-75
2021/12/30 07:39:49;;;;;;;29.17;13.38;;;;;;;-9.83;89.57;100424.75;6232869;22;20019;-73
2021/12/30 07:42:15;;;;;;;23.10;13.80;;;;;;;-9.78;89.48;100425.81;6248810;22;20047;-75
2021/12/30 07:44:42;;;;;;;18.73;12.02;;;;;;;-9.76;89.12;100416.59;6212392;22;20016;-74
2021/12/30 07:47:08;;;;;;;31.73;15.15;;;;;;;-9.71;88.83;100421.00;6264463;22;20024;-73
2021/12/30 07:49:36;;;;;;;26.67;13.35;;;;;;;-9.74;88.86;100423.41;6236691;22;20047;-74
2021/12/30 07:52:06;;;;;;;20.77;12.43;;;;;;;-9.76;88.85;100427.56;6289348;22;20023;-74
2021/12/30 07:54:32;;;;;;;26.05;13.75;;;;;;;-9.70;88.80;100425.25;6288823;22;20016;-74
2021/12/30 07:56:58;;;;;;;29.23;16.35;;;;;;;-9.74;88.89;100425.06;6244773;22;20107;-74
2021/12/30 07:59:24;;;;;;;24.55;14.00;;;;;;;-9.67;88.93;100435.47;6244878;22;20092;-74
2021/12/30 08:01:50;;;;;;;24.60;15.05;;;;;;;-9.67;88.92;100430.41;6245872;22;20016;-75
2021/12/30 08:04:16;;;;;;;21.25;13.65;;;;;;;-9.71;88.63;100433.63;6223579;22;20452;-75
2021/12/30 08:06:42;;;;;;;17.95;9.90;;;;;;;-9.66;88.67;100443.91;6248178;22;20027;-74
2021/12/30 08:09:09;;;;;;;12.77;9.57;;;;;;;-9.66;88.53;100437.19;6247620;22;20015;-73
2021/12/30 08:11:35;;;;;;;26.33;13.95;;;;;;;-9.71;88.65;100436.16;6221358;22;20410;-74
2021/12/30 08:14:01;;;;;;;29.50;14.95;;;;;;;-9.67;88.74;100435.47;6273666;22;20546;-74
2021/12/30 08:16:28;;;;;;;25.45;15.20;;;;;;;-9.63;88.42;100434.75;6245063;22;20081;-73
2021/12/30 08:18:54;;;;;;;37.63;17.10;;;;;;;-9.61;88.24;100433.13;6245095;22;20085;-74
2021/12/30 08:21:20;;;;;;;27.65;16.45;;;;;;;-9.59;88.29;100430.69;6272116;22;20451;-74
2021/12/30 08:23:47;;;;;;;32.17;15.40;;;;;;;-9.55;88.65;100429.94;6245842;22;20020;-73
2021/12/30 08:26:13;;;;;;;33.33;15.45;;;;;;;-9.51;87.98;100422.53;6245098;22;20023;-75
2021/12/30 08:28:39;;;;;;;22.83;13.77;;;;;;;-9.40;88.27;100419.53;6220541;22;20383;-74
2021/12/30 08:31:09;;;;;;;32.55;17.48;;;;;;;-9.42;87.56;100411.03;6272279;22;20027;-75
2021/12/30 08:33:35;;;;;;;42.67;20.33;;;;;;;-9.43;87.49;100419.41;6220759;22;20020;-74
2021/12/30 08:36:02;;;;;;;31.60;16.30;;;;;;;-9.40;88.39;100419.53;6245115;22;20043;-73
2021/12/30 08:38:28;;;;;;;28.52;15.30;;;;;;;-9.32;87.96;100424.00;6272037;22;20016;-74
2021/12/30 08:40:54;;;;;;;29.55;16.10;;;;;;;-9.30;87.95;100424.06;6221039;22;20375;-74
2021/12/30 08:43:20;;;;;;;15.85;6.80;;;;;;;-9.35;87.81;100420.53;6195176;22;20498;-75
2021/12/30 08:45:46;;;;;;;24.08;14.48;;;;;;;-9.33;87.38;100412.22;6245852;22;20030;-74
2021/12/30 08:48:12;;;;;;;17.15;10.70;;;;;;;-9.34;87.87;100407.94;6245266;22;20023;-74
2021/12/30 08:50:39;;;;;;;37.30;20.00;;;;;;;-9.31;87.07;100409.72;6272128;22;20016;-75
2021/12/30 08:53:05;;;;;;;38.20;21.35;;;;;;;-9.27;87.82;100414.06;6218776;22;20085;-75
2021/12/30 08:55:31;;;;;;;32.70;16.42;;;;;;;-9.19;87.57;100405.91;6194648;22;20026;-76
2021/12/30 08:57:57;;;;;;;33.10;17.50;;;;;;;-9.07;87.67;100411.38;6217819;22;20022;-77
2021/12/30 09:00:25;;;;;;;32.85;17.65;;;;;;;-9.09;86.81;100402.00;6219468;22;20015;-76
2021/12/30 09:02:52;;;;;;;29.75;14.93;;;;;;;-9.06;86.90;100407.16;6220072;22;20050;-75
2021/12/30 09:05:17;;;;;;;36.95;18.17;;;;;;;-9.07;87.38;100400.41;6245059;22;20019;-78
2021/12/30 09:07:43;;;;;;;66.30;32.40;;;;;;;-9.03;87.37;100398.00;6195184;22;20037;-76
2021/12/30 09:10:13;;;;;;;33.70;18.85;;;;;;;-8.92;87.77;100390.78;6192773;22;20112;-76
2021/12/30 09:12:43;;;;;;;37.75;13.77;;;;;;;-8.87;86.83;100403.56;6220434;22;20028;-77
2021/12/30 09:15:11;;;;;;;23.70;14.80;;;;;;;-9.02;87.21;100389.63;6248475;22;20089;-75
2021/12/30 09:17:40;;;;;;;28.38;16.45;;;;;;;-9.02;87.44;100388.75;6221321;22;20016;-75
2021/12/30 09:20:07;;;;;;;26.80;14.13;;;;;;;-8.99;87.11;100393.91;6222165;22;20019;-74
2021/12/30 09:22:34;;;;;;;23.75;12.75;;;;;;;-8.93;87.03;100409.28;6222207;22;20028;-75
2021/12/30 09:25:05;;;;;;;30.90;17.63;;;;;;;-8.88;87.21;100410.28;6274720;22;20031;-77
2021/12/30 09:27:40;;;;;;;37.22;14.88;;;;;;;-8.91;87.84;100402.63;6152872;22;20023;-75
2021/12/30 09:30:09;;;;;;;20.33;11.55;;;;;;;-8.77;87.68;100411.50;6247285;22;20011;-74
2021/12/30 09:32:36;;;;;;;34.80;16.20;;;;;;;-8.75;87.50;100409.88;6197176;22;20082;-75
2021/12/30 09:35:02;;;;;;;10.23;8.07;;;;;;;-8.80;87.62;100413.91;6171602;22;20480;-76
2021/12/30 09:37:28;;;;;;;22.50;12.30;;;;;;;-8.78;87.54;100399.66;6195547;22;20020;-77
2021/12/30 09:39:55;;;;;;;17.00;9.70;;;;;;;-8.84;87.43;100408.72;6245181;22;20483;-76
2021/12/30 09:42:21;;;;;;;19.75;12.50;;;;;;;-8.76;88.38;100408.13;6244325;22;20023;-77
2021/12/30 09:44:54;;;;;;;12.50;7.63;;;;;;;-8.84;87.83;100399.47;6214538;22;20026;-77
2021/12/30 09:47:23;;;;;;;24.10;14.70;;;;;;;-8.83;88.08;100400.34;6195878;22;20096;-75
2021/12/30 09:49:53;;;;;;;8.35;6.20;;;;;;;-8.92;88.17;100374.72;6192439;22;20078;-75
2021/12/30 09:52:19;;;;;;;27.55;15.10;;;;;;;-8.71;88.76;100391.44;6194678;22;20397;-76
2021/12/30 09:54:52;;;;;;;21.52;13.60;;;;;;;-8.65;87.93;100376.44;6171279;22;20058;-76
2021/12/30 09:57:23;;;;;;;19.45;11.38;;;;;;;-8.78;88.42;100369.31;6219113;22;20037;-75
2021/12/30 10:00:02;;;;;;;32.35;14.98;;;;;;;-8.59;87.97;100391.81;6199243;22;20023;-75
2021/12/30 10:02:40;;;;;;;36.97;17.50;;;;;;;-8.57;87.37;100364.88;6217792;22;20022;-75
2021/12/30 10:05:14;;;;;;;27.33;13.20;;;;;;;-8.52;87.25;100367.53;6144478;22;20065;-74
2021/12/30 10:07:41;;;;;;;24.85;13.80;;;;;;;-8.50;87.62;100371.81;6193626;22;20646;-73
2021/12/30 10:10:33;;;;;;;34.67;16.83;;;;;;;-8.46;86.96;100378.69;6218679;22;20041;-73
2021/12/30 10:13:22;;;;;;;32.53;15.13;;;;;;;-8.52;87.51;100360.81;6216688;22;20034;-73
2021/12/30 10:15:59;;;;;;;32.47;18.05;;;;;;;-8.60;87.67;100362.25;6197365;22;20027;-74
2021/12/30 10:18:25;;;;;;;23.60;13.38;;;;;;;-8.52;87.67;100368.41;6192067;22;20051;-74
2021/12/30 10:20:52;;;;;;;19.38;11.05;;;;;;;-8.68;87.89;100346.00;6191868;22;20514;-73
2021/12/30 10:23:20;;;;;;;34.05;16.92;;;;;;;-8.51;88.04;100354.09;6192244;22;20030;-73
2021/12/30 10:25:51;;;;;;;29.83;16.48;;;;;;;-8.51;88.50;100357.44;6193733;22;20534;-73
2021/12/30 10:28:22;;;;;;;23.27;12.52;;;;;;;-8.61;88.54;100364.75;6195561;22;20023;-73
2021/12/30 10:30:50;;;;;;;25.13;12.60;;;;;;;-8.60;88.94;100359.72;6194713;22;20048;-72
2021/12/30 10:33:25;;;;;;;35.65;19.52;;;;;;;-8.56;89.04;100361.53;6194331;22;20020;-74
2021/12/30 10:35:51;;;;;;;19.90;11.00;;;;;;;-8.59;89.07;100348.78;6195000;22;20356;-74
2021/12/30 10:38:18;;;;;;;28.33;15.27;;;;;;;-8.48;88.88;100360.09;6219657;22;20020;-72
2021/12/30 10:40:46;;;;;;;20.30;13.15;;;;;;;-8.59;89.35;100351.31;6170062;22;20020;-74
2021/12/30 10:43:26;;;;;;;27.50;13.68;;;;;;;-8.52;89.93;100342.25;6195890;22;20024;-74
2021/12/30 10:46:14;;;;;;;34.38;16.42;;;;;;;-8.49;89.71;100337.25;6220275;22;20106;-74
2021/12/30 10:48:52;;;;;;;23.00;12.38;;;;;;;-8.41;89.76;100334.97;6244490;22;20098;-74
2021/12/30 10:51:24;;;;;;;29.08;14.75;;;;;;;-8.33;89.90;100319.16;6194685;22;20098;-74
2021/12/30 10:53:52;;;;;;;17.95;10.63;;;;;;;-8.44;89.22;100319.69;6195194;22;20023;-74
2021/12/30 10:56:33;;;;;;;18.52;13.75;;;;;;;-8.36;89.37;100321.63;6170957;22;20555;-76
2021/12/30 10:59:21;;;;;;;25.33;12.75;;;;;;;-8.34;89.42;100329.25;6220797;22;20047;-74
2021/12/30 11:01:56;;;;;;;20.60;13.68;;;;;;;-8.29;89.84;100325.19;6170224;22;20025;-74
2021/12/30 11:04:31;;;;;;;29.05;18.00;;;;;;;-8.29;89.27;100315.03;6219779;22;20046;-75
2021/12/30 11:06:58;;;;;;;24.77;15.48;;;;;;;-8.32;89.54;100305.72;6219757;22;20109;-76
2021/12/30 11:09:32;;;;;;;21.92;13.02;;;;;;;-8.30;89.67;100314.19;6218485;22;20016;-76
2021/12/30 11:12:09;;;;;;;34.15;19.38;;;;;;;-8.25;89.46;100317.69;6222144;22;20097;-75
2021/12/30 11:14:38;;;;;;;37.25;19.70;;;;;;;-8.15;89.47;100318.78;6221254;22;20020;-75
2021/12/30 11:17:15;;;;;;;26.13;14.50;;;;;;;-8.10;89.39;100324.81;6220132;22;20030;-76
2021/12/30 11:19:43;;;;;;;34.97;15.70;;;;;;;-8.05;89.67;100328.34;6245088;22;20553;-75
2021/12/30 11:22:12;;;;;;;18.20;9.75;;;;;;;-8.11;90.05;100313.81;6244943;22;20074;-74
2021/12/30 11:24:40;;;;;;;8.20;6.13;;;;;;;-8.16;89.51;100327.19;6193189;22;20016;-76
2021/12/30 11:27:08;;;;;;;32.65;16.98;;;;;;;-8.15;90.03;100313.72;6196127;22;20118;-78
2021/12/30 11:29:35;;;;;;;29.33;16.15;;;;;;;-8.09;89.90;100326.53;6220451;22;20034;-76
2021/12/30 11:32:04;;;;;;;31.40;16.83;;;;;;;-8.03;90.12;100322.50;6247504;22;20141;-76
2021/12/30 11:34:30;;;;;;;26.33;15.95;;;;;;;-8.01;90.01;100317.47;6244446;22;20027;-76
2021/12/30 11:36:56;;;;;;;31.95;15.60;;;;;;;-8.01;89.63;100318.31;6243754;22;20448;-75
2021/12/30 11:39:23;;;;;;;21.88;13.88;;;;;;;-8.09;90.10;100318.94;6218458;22;20019;-76
2021/12/30 11:42:02;;;;;;;33.03;18.27;;;;;;;-8.14;89.71;100312.88;6218445;22;20503;-75
2021/12/30 11:44:32;;;;;;;10.98;8.13;;;;;;;-8.17;89.79;100313.66;6218908;22;20019;-76
2021/12/30 11:47:00;;;;;;;25.52;14.18;;;;;;;-8.18;90.48;100311.13;6243586;22;20019;-76
2021/12/30 11:49:48;;;;;;;31.38;14.43;;;;;;;-8.14;90.37;100308.69;6244107;22;20363;-76
2021/12/30 11:52:51;;;;;;;33.83;18.80;;;;;;;-8.15;90.42;100313.72;6197101;22;20348;-76
2021/12/30 11:55:41;;;;;;;12.73;9.85;;;;;;;-8.12;90.36;100316.34;6218564;22;20015;-75
2021/12/30 11:58:32;;;;;;;31.95;15.38;;;;;;;-8.15;90.33;100311.19;6243757;22;20193;-77
2021/12/30 12:01:10;;;;;;;27.35;15.27;;;;;;;-8.11;90.70;100306.22;6243319;22;20019;-75
2021/12/30 12:03:40;;;;;;;25.73;13.95;;;;;;;-8.13;90.53;100307.00;6268608;22;20016;-75
2021/12/30 12:06:30;;;;;;;34.42;15.95;;;;;;;-8.07;90.97;100309.72;6241321;22;20106;-75
2021/12/30 12:09:16;;;;;;;21.83;12.60;;;;;;;-8.16;91.43;100301.88;6245261;22;20020;-75
2021/12/30 12:11:53;;;;;;;20.73;12.85;;;;;;;-8.20;91.68;100292.47;6267178;22;20520;-76
2021/12/30 12:14:24;;;;;;;19.20;9.80;;;;;;;-8.21;91.59;100294.16;6214339;22;20026;-78
2021/12/30 12:16:59;;;;;;;26.00;15.65;;;;;;;-8.19;91.75;100301.78;6164053;22;20647;-75
2021/12/30 12:19:44;;;;;;;17.92;10.40;;;;;;;-8.19;91.98;100297.59;6167245;22;20027;-75
2021/12/30 12:22:31;;;;;;;28.33;15.88;;;;;;;-8.17;92.10;100295.94;6216515;22;20030;-76
2021/12/30 12:25:11;;;;;;;7.50;4.80;;;;;;;-8.29;92.74;100294.78;6219044;22;20020;-75
2021/12/30 12:27:48;;;;;;;19.67;12.45;;;;;;;-8.37;92.88;100294.56;6217928;22;20102;-75
2021/12/30 12:30:40;;;;;;;34.30;16.92;;;;;;;-8.17;93.35;100311.13;6221137;22;20345;-75
2021/12/30 12:33:25;;;;;;;32.08;18.33;;;;;;;-8.15;92.44;100312.06;6212904;22;20050;-75
2021/12/30 12:35:51;;;;;;;27.70;16.35;;;;;;;-8.13;91.78;100319.69;6194225;22;20667;-76
2021/12/30 12:38:43;;;;;;;16.60;10.98;;;;;;;-8.16;92.32;100317.06;6218959;22;20027;-75
2021/12/30 12:41:31;;;;;;;35.30;17.52;;;;;;;-8.14;92.46;100317.94;6195228;22;20047;-74
2021/12/30 12:44:12;;;;;;;26.63;13.05;;;;;;;-8.17;92.38;100311.13;6194864;22;20456;-74
2021/12/30 12:46:49;;;;;;;31.25;15.68;;;;;;;-8.13;92.04;100319.69;6171363;22;20057;-74
2021/12/30 12:49:40;;;;;;;27.50;15.65;;;;;;;-8.13;92.28;100314.63;6245427;22;20460;-74
2021/12/30 12:52:06;;;;;;;39.27;18.63;;;;;;;-8.16;92.23;100306.94;6195184;22;20035;-72
2021/12/30 12:54:37;;;;;;;29.95;16.58;;;;;;;-8.17;92.09;100310.28;6272205;22;20043;-74
2021/12/30 12:57:04;;;;;;;;;;;;;;;-8.16;92.44;100306.94;6272840;22;20440;-75
2021/12/30 12:59:36;;;;;;;24.00;14.25;;;;;;;-8.17;92.89;100300.16;6266703;22;20410;-74
2021/12/30 13:02:03;;;;;;;21.35;10.90;;;;;;;-8.23;92.39;100293.25;6245014;22;20039;-75
2021/12/30 13:04:29;;;;;;;21.73;12.73;;;;;;;-8.17;92.49;100295.09;6219424;22;20098;-74
2021/12/30 13:06:55;;;;;;;23.95;14.75;;;;;;;-8.21;92.67;100293.31;6219483;22;20023;-74
2021/12/30 13:09:22;;;;;;;29.65;15.63;;;;;;;-8.22;92.70;100291.59;6169453;22;20027;-74
2021/12/30 13:11:50;;;;;;;30.10;15.25;;;;;;;-8.16;92.46;100301.88;6218824;22;20030;-74
2021/12/30 13:14:26;;;;;;;31.50;16.40;;;;;;;-8.16;92.04;100291.75;6244613;22;20046;-74
2021/12/30 13:16:57;;;;;;;21.33;12.32;;;;;;;-8.14;92.19;100301.09;6219692;22;20081;-75
2021/12/30 13:19:33;;;;;;;24.42;15.85;;;;;;;-8.11;92.02;100285.97;6218948;22;20023;-73
2021/12/30 13:22:10;;;;;;;24.77;11.80;;;;;;;-8.11;91.91;100290.19;6243829;22;20035;-74
2021/12/30 13:24:49;;;;;;;19.88;10.98;;;;;;;-8.06;92.09;100293.72;6271178;22;20591;-76
2021/12/30 13:27:15;;;;;;;32.58;16.17;;;;;;;-8.03;92.47;100293.78;6272109;22;20047;-73
2021/12/30 13:29:43;;;;;;;26.85;12.38;;;;;;;-8.09;91.98;100293.63;6271235;22;20093;-74
2021/12/30 13:32:09;;;;;;;20.92;13.00;;;;;;;-8.03;91.72;100296.31;6219712;22;20047;-73
2021/12/30 13:35:04;;;;;;;17.17;10.85;;;;;;;-8.06;92.23;100296.25;6244857;22;20020;-73
2021/12/30 13:37:44;;;;;;;32.75;16.85;;;;;;;-8.02;92.09;100291.31;6271912;22;20050;-75
2021/12/30 13:40:16;;;;;;;33.95;18.48;;;;;;;-8.07;92.42;100281.84;6170707;22;20061;-74
2021/12/30 13:43:16;;;;;;;25.70;15.02;;;;;;;-8.07;92.02;100290.31;6244216;22;20038;-74
2021/12/30 13:45:43;;;;;;;27.92;15.38;;;;;;;-8.04;92.50;100281.94;6208771;22;20028;-74
2021/12/30 13:48:17;;;;;;;49.03;28.55;;;;;;;-8.11;92.80;100278.38;6218721;22;20411;-74
2021/12/30 13:51:04;;;;;;;29.48;19.73;;;;;;;-8.06;92.76;100296.25;6218074;22;20467;-73
2021/12/30 13:53:32;;;;;;;21.88;12.93;;;;;;;-8.05;93.00;100285.31;6217766;22;20054;-74
2021/12/30 13:56:04;;;;;;;37.65;19.27;;;;;;;-8.05;93.01;100285.31;6219069;22;20329;-74
2021/12/30 13:58:34;;;;;;;31.38;16.48;;;;;;;-8.00;92.78;100296.41;6169475;22;20023;-73
2021/12/30 14:01:08;;;;;;;37.67;20.48;;;;;;;-8.00;93.11;100294.72;6219858;22;20053;-74
2021/12/30 14:03:42;;;;;;;24.40;12.63;;;;;;;-8.04;92.79;100284.47;6172503;22;20043;-74
2021/12/30 14:06:22;;;;;;;26.10;15.60;;;;;;;-8.03;92.88;100291.25;6196100;22;20554;-74
2021/12/30 14:09:11;;;;;;;33.22;19.35;;;;;;;-8.04;93.23;100281.94;6195635;22;20026;-73
2021/12/30 14:12:07;;;;;;;26.45;11.10;;;;;;;-8.02;93.23;100285.38;6217337;22;20074;-74
2021/12/30 14:14:35;;;;;;;25.40;14.40;;;;;;;-8.05;93.46;100283.59;6219461;22;20058;-76
2021/12/30 14:17:02;;;;;;;20.83;13.93;;;;;;;-8.09;93.38;100273.38;6220191;22;20107;-74
2021/12/30 14:19:36;;;;;;;45.38;24.35;;;;;;;-8.05;92.91;100278.53;6220362;22;20034;-73
2021/12/30 14:22:02;;;;;;;29.67;17.10;;;;;;;-8.03;92.75;100283.66;6221350;22;20110;-74
2021/12/30 14:24:29;;;;;;;24.17;15.07;;;;;;;-8.07;93.19;100266.66;6171173;22;20038;-74
2021/12/30 14:27:00;;;;;;;25.90;16.73;;;;;;;-8.04;93.15;100280.25;6195937;22;20027;-74
2021/12/30 14:29:28;;;;;;;27.58;16.40;;;;;;;-8.01;93.23;100270.22;6221474;22;20026;-76
2021/12/30 14:31:55;;;;;;;39.53;21.52;;;;;;;-7.98;93.54;100271.97;6222382;22;20015;-75
2021/12/30 14:34:40;;;;;;;38.30;19.50;;;;;;;-7.99;93.51;100265.19;6223170;22;20054;-75
2021/12/30 14:37:08;;;;;;;31.63;15.38;;;;;;;-7.98;93.36;100271.97;6254569;22;20039;-75
2021/12/30 14:39:40;;;;;;;28.98;15.70;;;;;;;-7.95;92.84;100267.00;6252169;22;20039;-75
2021/12/30 14:42:07;;;;;;;47.15;22.30;;;;;;;-7.94;93.02;100263.63;6252642;22;20050;-76
2021/12/30 14:44:34;;;;;;;34.40;17.38;;;;;;;-7.92;92.38;100262.84;6253115;22;20046;-75
2021/12/30 14:47:06;;;;;;;49.25;21.63;;;;;;;-7.97;93.51;100261.88;6202728;22;20031;-75
2021/12/30 14:49:39;;;;;;;25.90;15.43;;;;;;;-8.00;93.17;100248.28;6229737;22;20381;-77
2021/12/30 14:52:23;;;;;;;21.70;12.10;;;;;;;-7.95;93.41;100256.88;6197450;22;20050;-75
2021/12/30 14:54:52;;;;;;;48.53;23.98;;;;;;;-7.97;93.52;100263.56;6202649;22;20023;-75
2021/12/30 14:57:22;;;;;;;11.68;9.32;;;;;;;-7.98;93.04;100252.56;6180568;22;20105;-76
2021/12/30 14:59:49;;;;;;;15.70;10.85;;;;;;;-7.96;93.35;100245.00;6176804;22;20027;-74
2021/12/30 15:02:16;;;;;;;17.75;10.68;;;;;;;-7.95;93.73;100246.75;6220726;22;20019;-75
2021/12/30 15:04:42;;;;;;;41.22;21.02;;;;;;;-7.94;93.33;100238.31;6172430;22;20459;-75
2021/12/30 15:07:10;;;;;;;26.02;11.15;;;;;;;-7.92;93.75;100237.50;6172420;22;20038;-74
2021/12/30 15:09:40;;;;;;;20.48;12.60;;;;;;;-7.99;94.22;100234.81;6159022;22;20019;-76
2021/12/30 15:12:07;;;;;;;32.13;17.13;;;;;;;-7.93;93.75;100247.63;6207596;22;20024;-76
2021/12/30 15:14:33;;;;;;;26.65;13.93;;;;;;;-7.99;93.64;100232.28;6205070;22;20050;-76
2021/12/30 15:17:00;;;;;;;26.80;16.23;;;;;;;-7.90;93.71;100245.16;6201209;22;20044;-76
2021/12/30 15:19:31;;;;;;;35.05;18.25;;;;;;;-7.92;93.87;100251.88;6230645;22;20016;-75
2021/12/30 15:21:57;;;;;;;27.33;13.38;;;;;;;-7.91;93.90;100251.03;6230698;22;20031;-76
2021/12/30 15:24:24;;;;;;;32.08;12.60;;;;;;;-7.91;93.84;100258.63;6171724;22;20027;-75
2021/12/30 15:26:50;;;;;;;39.50;18.83;;;;;;;-7.92;93.63;100249.34;6273170;22;20016;-74
2021/12/30 15:29:16;;;;;;;27.13;13.10;;;;;;;-7.93;93.95;100245.09;6193598;22;20077;-74
2021/12/30 15:31:43;;;;;;;30.20;12.80;;;;;;;-7.88;93.61;100253.66;6215839;22;20026;-74
2021/12/30 15:34:09;;;;;;;28.77;15.75;;;;;;;-7.87;93.88;100246.91;6268664;22;20026;-73
2021/12/30 15:36:35;;;;;;;25.77;13.20;;;;;;;-7.86;93.68;100241.03;6245343;22;20031;-74
2021/12/30 15:39:01;;;;;;;15.68;9.65;;;;;;;-7.89;93.59;100236.75;6247105;22;20024;-75
2021/12/30 15:41:28;;;;;;;39.40;17.75;;;;;;;-7.91;93.42;100233.31;6273684;22;20019;-74
2021/12/30 15:43:54;;;;;;;42.33;19.52;;;;;;;-7.87;93.08;100239.31;6244517;22;20486;-74
2021/12/30 15:46:20;;;;;;;30.83;16.52;;;;;;;-7.85;93.32;100238.53;6219119;22;20023;-74
2021/12/30 15:48:46;;;;;;;35.08;15.93;;;;;;;-7.89;94.13;100236.75;6217381;22;20035;-74
2021/12/30 15:51:13;;;;;;;27.13;14.98;;;;;;;-7.89;93.61;100241.81;6217214;22;20020;-74
2021/12/30 15:53:39;;;;;;;34.25;15.13;;;;;;;-7.84;93.48;100244.44;6242457;22;20440;-75
2021/12/30 15:56:06;;;;;;;22.63;12.63;;;;;;;-7.88;93.29;100235.91;6217226;22;20073;-74
2021/12/30 15:58:34;;;;;;;26.55;14.50;;;;;;;-7.86;93.59;100241.91;6268325;22;20027;-75
2021/12/30 16:01:00;;;;;;;26.67;13.55;;;;;;;-7.84;94.14;100242.78;6243438;22;20030;-74
2021/12/30 16:03:27;;;;;;;28.15;15.80;;;;;;;-7.83;94.04;100238.56;6245156;22;20019;-74
2021/12/30 16:05:52;;;;;;;30.05;15.77;;;;;;;-7.88;93.79;100233.38;6194782;22;20090;-74
2021/12/30 16:08:19;;;;;;;24.30;14.32;;;;;;;-7.86;93.81;100230.91;6244815;22;20020;-74
2021/12/30 16:10:45;;;;;;;18.08;9.82;;;;;;;-7.83;94.23;100241.09;6272041;22;20016;-74
2021/12/30 16:13:11;;;;;;;50.20;22.55;;;;;;;-7.87;93.94;100230.03;6245209;22;20340;-74
2021/12/30 16:15:38;;;;;;;21.10;11.95;;;;;;;-7.82;93.96;100232.69;6194786;22;20016;-74
2021/12/30 16:18:04;;;;;;;34.50;15.23;;;;;;;-7.81;93.64;100239.44;6271855;22;20015;-74
2021/12/30 16:20:56;;;;;;;29.83;14.45;;;;;;;-7.78;93.89;100244.59;6245186;22;20051;-73
2021/12/30 16:23:22;;;;;;;26.38;14.88;;;;;;;-7.84;94.00;100230.13;6270778;22;20019;-74
2021/12/30 16:25:49;;;;;;;39.58;18.60;;;;;;;-7.77;94.05;100237.03;6144201;22;20024;-74
2021/12/30 16:28:20;;;;;;;32.15;16.05;;;;;;;-7.80;94.52;100236.13;6194036;22;20019;-76
2021/12/30 16:30:49;;;;;;;23.60;12.35;;;;;;;-7.80;94.31;100236.13;6195817;22;20468;-76